Time;durP1;ratioP1;P1;durP2;ratioP2;P2;SDS_P1;SDS_P2;PMS_P1;PMS_P2;Temp;Humidity;BMP_temperature;BMP_pressure;BME280_temperature;BME280_humidity;BME280_pressure;Samples;Min_cycle;Max_cycle;Signal;HPM_P1;HPM_P2
2023/04/27 00:04:23;;;;;;;3.20;1.63;;;;;;;3.12;100.00;98574.34;15289701;19;20014;-78
2023/04/27 00:09:51;;;;;;;3.15;1.80;;;;;;;3.08;100.00;98576.41;15292905;19;20318;-78
2023/04/27 00:15:16;;;;;;;4.07;1.85;;;;;;;3.04;100.00;98566.91;15291575;19;20034;-78
2023/04/27 00:20:40;;;;;;;2.28;1.40;;;;;;;2.98;100.00;98569.16;15297593;19;20018;-79
2023/04/27 00:26:07;;;;;;;6.72;1.90;;;;;;;2.92;100.00;98570.44;15289906;19;20007;-78
2023/04/27 00:31:34;;;;;;;5.97;1.92;;;;;;;2.85;100.00;98574.53;15294516;19;20033;-78
2023/04/27 00:36:59;;;;;;;2.95;1.85;;;;;;;2.77;100.00;98575.91;15293341;19;20006;-78
2023/04/27 00:42:27;;;;;;;4.35;2.03;;;;;;;2.71;100.00;98581.66;15292633;19;20431;-79
2023/04/27 00:47:52;;;;;;;4.18;1.80;;;;;;;2.64;100.00;98571.56;15295707;19;20050;-79
2023/04/27 00:53:18;;;;;;;4.07;1.92;;;;;;;2.53;100.00;98585.63;15301241;19;20023;-78
2023/04/27 00:58:52;;;;;;;4.72;1.77;;;;;;;2.46;100.00;98580.69;15325168;19;20017;-78
2023/04/27 01:04:19;;;;;;;6.45;2.00;;;;;;;2.42;100.00;98592.50;15289500;19;20022;-78
2023/04/27 01:09:43;;;;;;;5.55;1.98;;;;;;;2.39;100.00;98586.53;15291303;19;20015;-79
2023/04/27 01:15:12;;;;;;;4.28;1.85;;;;;;;2.35;100.00;98579.75;15288198;19;20023;-78
2023/04/27 01:20:38;;;;;;;2.83;1.67;;;;;;;2.28;100.00;98581.97;15290290;19;20013;-80
2023/04/27 01:26:06;;;;;;;3.10;1.80;;;;;;;2.25;100.00;98582.19;15284360;19;20521;-78
2023/04/27 01:31:31;;;;;;;3.85;1.90;;;;;;;2.24;100.00;98573.34;15282681;19;20019;-78
2023/04/27 01:36:56;;;;;;;4.00;1.88;;;;;;;2.22;100.00;98587.69;15278451;19;20011;-77
2023/04/27 01:42:23;;;;;;;4.65;2.10;;;;;;;2.17;100.00;98579.19;15284328;19;20021;-78
2023/04/27 01:47:53;;;;;;;2.57;1.70;;;;;;;2.11;100.00;98573.34;15282923;19;20389;-78
2023/04/27 01:53:17;;;;;;;3.75;1.75;;;;;;;1.94;100.00;98566.50;15281291;19;21557;-80
2023/04/27 01:58:51;;;;;;;3.58;1.70;;;;;;;1.93;100.00;98587.88;15279949;19;20034;-78
2023/04/27 02:04:16;;;;;;;3.60;1.85;;;;;;;1.95;100.00;98596.56;15282624;19;20428;-77
2023/04/27 02:09:41;;;;;;;4.45;1.75;;;;;;;1.99;100.00;98596.28;15280835;19;20030;-78
2023/04/27 02:15:10;;;;;;;3.42;1.80;;;;;;;2.03;100.00;98594.28;15283655;19;20010;-78
2023/04/27 02:20:34;;;;;;;4.65;2.05;;;;;;;2.06;100.00;98604.66;15290042;19;20076;-78
2023/04/27 02:26:00;;;;;;;2.58;1.80;;;;;;;2.11;100.00;98602.56;15287360;19;20077;-78
2023/04/27 02:31:28;;;;;;;3.55;1.85;;;;;;;2.17;100.00;98611.09;15291481;19;20291;-78
2023/04/27 02:36:58;;;;;;;3.30;2.00;;;;;;;2.19;100.00;98609.16;15313850;19;20022;-79
2023/04/27 02:42:15;;;;;;;2.63;1.70;;;;;;;2.20;100.00;98622.38;15314568;19;20010;-78
2023/04/27 02:47:43;;;;;;;3.67;1.90;;;;;;;2.26;100.00;98626.44;15284252;19;20244;-78
2023/04/27 02:53:07;;;;;;;3.58;1.88;;;;;;;2.26;100.00;98621.09;15297126;19;20013;-78
2023/04/27 02:58:38;;;;;;;3.50;1.60;;;;;;;2.20;100.00;98627.69;15296676;19;20028;-78
2023/04/27 03:04:06;;;;;;;3.10;2.00;;;;;;;2.20;100.00;98621.50;15300837;19;20428;-78
2023/04/27 03:09:32;;;;;;;3.88;1.85;;;;;;;2.20;100.00;98632.13;15305321;19;20303;-78
2023/04/27 03:14:58;;;;;;;3.58;2.00;;;;;;;2.22;100.00;98625.78;15290565;19;20014;-80
2023/04/27 03:20:25;;;;;;;3.75;1.65;;;;;;;2.23;100.00;98638.13;15313583;19;20014;-79
2023/04/27 03:25:50;;;;;;;2.70;1.75;;;;;;;2.27;100.00;98636.94;15302701;19;20029;-79
2023/04/27 03:31:15;;;;;;;5.13;1.80;;;;;;;2.27;100.00;98638.75;15302464;19;20010;-80
2023/04/27 03:36:43;;;;;;;2.83;1.80;;;;;;;2.30;100.00;98654.47;15303912;19;20014;-80
2023/04/27 03:42:07;;;;;;;3.03;1.85;;;;;;;2.34;100.00;98657.81;15306916;19;20023;-82
2023/04/27 03:47:33;;;;;;;4.78;2.10;;;;;;;2.38;100.00;98660.16;15308035;19;20030;-80
2023/04/27 03:53:01;;;;;;;4.97;1.67;;;;;;;2.39;100.00;98661.88;15300588;19;20038;-80
2023/04/27 03:58:32;;;;;;;5.05;1.85;;;;;;;2.41;100.00;98662.59;15291967;19;20046;-79
2023/04/27 04:04:00;;;;;;;3.80;1.70;;;;;;;2.42;100.00;98664.28;15289154;19;20481;-79
2023/04/27 04:09:28;;;;;;;2.08;1.88;;;;;;;2.43;100.00;98660.69;15289897;19;20017;-79
2023/04/27 04:14:53;;;;;;;4.55;1.73;;;;;;;2.44;100.00;98667.72;15286762;19;20783;-80
2023/04/27 04:20:19;;;;;;;3.72;1.60;;;;;;;2.46;100.00;98670.28;15285501;19;20474;-80
2023/04/27 04:25:47;;;;;;;5.38;1.80;;;;;;;2.49;100.00;98680.69;15283996;19;20500;-81
2023/04/27 04:31:17;;;;;;;2.92;1.63;;;;;;;2.51;100.00;98680.59;15290497;19;20021;-80
2023/04/27 04:36:43;;;;;;;3.22;1.65;;;;;;;2.56;100.00;98681.13;15284335;19;20430;-80
2023/04/27 04:42:10;;;;;;;3.97;1.90;;;;;;;2.59;100.00;98678.28;15290474;19;20074;-79
2023/04/27 04:47:35;;;;;;;2.10;1.70;;;;;;;2.66;100.00;98684.03;15289227;19;20026;-79
2023/04/27 04:53:06;;;;;;;4.50;1.70;;;;;;;2.72;100.00;98687.13;15284723;19;20018;-79
2023/04/27 04:58:40;;;;;;;3.58;1.90;;;;;;;2.76;100.00;98693.06;15288708;19;20017;-80
2023/04/27 05:04:05;;;;;;;3.65;1.90;;;;;;;2.84;100.00;98689.91;15290776;19;20034;-79
2023/04/27 05:09:30;;;;;;;5.15;1.88;;;;;;;2.87;100.00;98687.88;15296225;19;20018;-80
2023/04/27 05:14:58;;;;;;;3.22;2.00;;;;;;;2.95;100.00;98682.03;15300741;19;20010;-78
2023/04/27 05:20:23;;;;;;;5.22;3.17;;;;;;;3.00;100.00;98682.53;15315535;19;20021;-79
2023/04/27 05:25:54;;;;;;;3.13;2.25;;;;;;;3.12;100.00;98682.66;15322280;19;20015;-79
2023/04/27 05:31:14;;;;;;;6.75;2.17;;;;;;;3.21;100.00;98682.00;15353843;19;20010;-77
2023/04/27 05:36:52;;;;;;;2.58;1.80;;;;;;;3.32;100.00;98675.91;15298608;19;20025;-79
2023/04/27 05:42:16;;;;;;;4.05;1.88;;;;;;;3.41;100.00;98677.06;15354348;19;20014;-78
2023/04/27 05:47:48;;;;;;;2.60;1.58;;;;;;;3.51;100.00;98678.13;15335450;19;20052;-77
2023/04/27 05:53:21;;;;;;;4.65;1.70;;;;;;;3.60;100.00;98677.44;15350764;19;20022;-78
2023/04/27 05:58:47;;;;;;;5.65;1.75;;;;;;;3.70;100.00;98673.16;15344468;19;20018;-77
2023/04/27 06:04:12;;;;;;;5.47;1.73;;;;;;;3.79;100.00;98681.47;15310663;19;20026;-77
2023/04/27 06:09:40;;;;;;;3.28;1.83;;;;;;;3.85;100.00;98686.31;15294849;19;20007;-77
2023/04/27 06:15:07;;;;;;;2.65;1.30;;;;;;;3.96;100.00;98694.38;15284205;19;20015;-77
2023/04/27 06:20:33;;;;;;;4.43;1.58;;;;;;;4.11;100.00;98695.09;15294922;19;20375;-77
2023/04/27 06:26:00;;;;;;;2.80;1.50;;;;;;;4.31;100.00;98703.41;15301818;19;20011;-77
2023/04/27 06:31:25;;;;;;;4.32;1.60;;;;;;;4.44;100.00;98692.66;15304495;19;20043;-77
2023/04/27 06:36:50;;;;;;;3.67;1.50;;;;;;;4.57;100.00;98704.13;15303893;19;20022;-78
2023/04/27 06:42:18;;;;;;;3.33;1.60;;;;;;;4.62;100.00;98706.44;15307028;19;20030;-78
2023/04/27 06:47:43;;;;;;;3.65;1.80;;;;;;;4.76;100.00;98716.91;15308915;19;20010;-78
2023/04/27 06:53:09;;;;;;;3.40;1.55;;;;;;;4.94;100.00;98709.31;15304978;19;20017;-78
2023/04/27 06:58:43;;;;;;;3.17;1.77;;;;;;;5.19;100.00;98706.56;15301474;19;20486;-78
2023/04/27 07:04:08;;;;;;;3.42;1.60;;;;;;;5.40;100.00;98712.91;15293413;19;20025;-78
2023/04/27 07:09:33;;;;;;;3.65;1.70;;;;;;;5.53;100.00;98712.75;15299564;19;20070;-79
2023/04/27 07:15:03;;;;;;;2.95;1.60;;;;;;;5.64;100.00;98703.03;15275355;19;20709;-79
2023/04/27 07:20:28;;;;;;;6.22;1.55;;;;;;;5.74;100.00;98706.66;15262376;19;20760;-78
2023/04/27 07:25:53;;;;;;;2.95;1.73;;;;;;;5.93;100.00;98714.06;15284193;19;20010;-78
2023/04/27 07:31:20;;;;;;;4.38;1.90;;;;;;;6.13;100.00;98708.94;15296980;19;20014;-79
2023/04/27 07:36:47;;;;;;;2.67;1.60;;;;;;;6.34;100.00;98708.16;15292521;19;20074;-79
2023/04/27 07:42:12;;;;;;;4.28;1.65;;;;;;;6.58;100.00;98715.94;15299882;19;20016;-78
2023/04/27 07:47:41;;;;;;;3.78;1.75;;;;;;;6.82;100.00;98725.56;15303134;19;20016;-77
2023/04/27 07:53:06;;;;;;;3.22;1.75;;;;;;;7.00;100.00;98720.47;15268321;19;21499;-77
2023/04/27 07:58:39;;;;;;;3.97;1.70;;;;;;;7.19;100.00;98719.75;15297951;19;20034;-79
2023/04/27 08:04:07;;;;;;;5.32;1.70;;;;;;;7.31;100.00;98715.16;15295616;19;20426;-77
2023/04/27 08:09:31;;;;;;;5.30;1.48;;;;;;;7.51;100.00;98710.72;15296072;19;20476;-78
2023/04/27 08:15:05;;;;;;;3.22;1.58;;;;;;;7.66;100.00;98724.63;15293894;19;20049;-78
2023/04/27 08:20:33;;;;;;;3.15;1.65;;;;;;;7.80;100.00;98713.53;15298232;19;20370;-77
2023/04/27 08:25:57;;;;;;;3.25;1.60;;;;;;;7.98;100.00;98713.72;15291585;19;20047;-78
2023/04/27 08:31:22;;;;;;;4.72;1.73;;;;;;;8.13;100.00;98713.34;15295873;19;20501;-78
2023/04/27 08:36:50;;;;;;;6.68;1.88;;;;;;;8.28;100.00;98724.50;15292868;19;20021;-78
2023/04/27 08:42:16;;;;;;;4.10;1.67;;;;;;;8.18;100.00;98711.06;15302853;19;20017;-77
2023/04/27 08:47:41;;;;;;;3.88;1.67;;;;;;;8.31;100.00;98714.34;15347968;19;20006;-78
2023/04/27 08:53:19;;;;;;;3.83;1.63;;;;;;;8.37;100.00;98720.16;15295446;19;20024;-78
2023/04/27 08:58:47;;;;;;;3.08;1.50;;;;;;;8.59;100.00;98717.22;15289376;19;20032;-78
2023/04/27 09:04:13;;;;;;;4.95;1.65;;;;;;;8.88;100.00;98719.03;15294358;19;20014;-79
2023/04/27 09:09:41;;;;;;;4.45;1.83;;;;;;;9.09;100.00;98715.34;15292318;19;20555;-78
2023/04/27 09:15:07;;;;;;;3.42;1.77;;;;;;;9.10;94.54;98717.03;15291231;19;20021;-78
2023/04/27 09:20:32;;;;;;;3.60;1.80;;;;;;;9.27;93.29;98709.19;15307039;19;20086;-79
2023/04/27 09:26:02;;;;;;;4.82;1.80;;;;;;;9.48;100.00;98690.16;15305737;19;20018;-76
2023/04/27 09:31:27;;;;;;;3.67;1.63;;;;;;;9.81;100.00;98695.97;15309217;19;20011;-77
2023/04/27 09:36:54;;;;;;;3.30;1.70;;;;;;;9.85;86.79;98689.28;15325557;19;20027;-76
2023/04/27 09:42:22;;;;;;;2.75;1.60;;;;;;;9.86;91.35;98689.13;15289764;19;20010;-76
2023/04/27 09:47:47;;;;;;;6.30;1.67;;;;;;;9.81;86.47;98688.75;15298932;19;20026;-77
2023/04/27 09:53:15;;;;;;;3.17;1.77;;;;;;;10.01;98.67;98680.56;15301590;19;20022;-77
2023/04/27 09:59:17;;;;;;;4.05;1.90;;;;;;;10.39;93.30;98677.75;15299918;19;20022;-75
2023/04/27 10:04:55;;;;;;;;;;;;;;;10.63;76.37;98685.25;15300488;19;20017;-78
2023/04/27 10:10:24;;;;;;;3.25;1.80;;;;;;;10.67;79.96;98683.06;15303530;19;20267;-77
2023/04/27 10:15:52;;;;;;;4.97;2.08;;;;;;;10.13;86.72;98682.03;15292888;19;20012;-74
2023/04/27 10:21:22;;;;;;;5.20;2.17;;;;;;;10.21;100.00;98675.03;15301993;19;20006;-77
2023/04/27 10:26:50;;;;;;;2.92;1.95;;;;;;;10.47;85.95;98670.63;15295355;19;20024;-76
2023/04/27 10:32:19;;;;;;;6.10;2.00;;;;;;;10.66;86.59;98671.44;15299273;19;20015;-79
2023/04/27 10:37:46;;;;;;;3.47;1.92;;;;;;;10.60;82.19;98674.75;15293093;19;20495;-79
2023/04/27 10:43:17;;;;;;;4.90;2.20;;;;;;;10.50;76.81;98672.16;15295715;19;20046;-77
2023/04/27 10:48:45;;;;;;;3.93;2.13;;;;;;;10.77;80.37;98673.88;15288688;19;20035;-78
2023/04/27 10:54:11;;;;;;;4.03;2.00;;;;;;;11.07;82.29;98665.50;15291463;19;20486;-77
2023/04/27 10:59:48;;;;;;;4.35;2.17;;;;;;;11.64;79.22;98667.69;15297935;19;20097;-78
2023/04/27 11:05:29;;;;;;;3.40;2.10;;;;;;;11.85;69.15;98675.34;15296455;19;20032;-76
2023/04/27 11:10:54;;;;;;;4.47;2.00;;;;;;;11.85;68.50;98669.09;15310178;19;20017;-78
2023/04/27 11:16:18;;;;;;;3.10;1.80;;;;;;;11.77;71.36;98663.69;15310673;19;20006;-77
2023/04/27 11:21:46;;;;;;;3.90;1.95;;;;;;;11.85;67.65;98658.28;15307200;19;20015;-75
2023/04/27 11:27:11;;;;;;;4.20;1.75;;;;;;;11.84;71.32;98660.16;15310132;19;20051;-76
2023/04/27 11:32:36;;;;;;;4.63;1.80;;;;;;;11.93;73.46;98661.03;15311486;19;20031;-77
2023/04/27 11:38:07;;;;;;;3.47;2.10;;;;;;;11.78;68.15;98659.97;15304449;19;20025;-77
2023/04/27 11:43:33;;;;;;;3.80;2.13;;;;;;;11.76;67.92;98664.69;15299965;19;20078;-77
2023/04/27 11:48:58;;;;;;;7.40;2.28;;;;;;;11.89;70.09;98659.66;15304450;19;20022;-79
2023/04/27 11:54:30;;;;;;;7.72;2.10;;;;;;;12.09;72.68;98654.00;15296002;19;20489;-78
2023/04/27 12:00:07;;;;;;;4.00;2.10;;;;;;;12.40;71.66;98658.81;15304159;19;20082;-79
2023/04/27 12:05:35;;;;;;;6.82;2.03;;;;;;;12.53;62.72;98652.88;15306177;19;20026;-77
2023/04/27 12:11:04;;;;;;;3.28;2.30;;;;;;;12.00;62.65;98666.63;15311931;19;20018;-79
2023/04/27 12:16:29;;;;;;;3.75;2.00;;;;;;;12.41;65.31;98652.34;15339511;19;20031;-76
2023/04/27 12:21:53;;;;;;;3.30;2.00;;;;;;;12.83;61.40;98639.69;15318140;19;20701;-78
2023/04/27 12:27:21;;;;;;;4.55;2.00;;;;;;;13.29;63.45;98644.53;15298947;19;20070;-77
2023/04/27 12:32:45;;;;;;;3.20;2.10;;;;;;;13.37;60.19;98641.78;15297659;19;20018;-78
2023/04/27 12:38:10;;;;;;;3.75;2.08;;;;;;;13.17;60.67;98646.78;15299165;19;20018;-79
2023/04/27 12:43:39;;;;;;;3.70;1.90;;;;;;;13.23;60.28;98644.19;15301312;19;20066;-78
2023/04/27 12:49:05;;;;;;;2.90;2.00;;;;;;;13.38;58.58;98648.88;15301164;19;20010;-78
2023/04/27 12:54:30;;;;;;;3.15;2.00;;;;;;;13.68;58.51;98641.03;15299241;19;20018;-78
2023/04/27 13:00:08;;;;;;;2.80;1.95;;;;;;;13.64;55.27;98639.69;15300690;19;20031;-78
2023/04/27 13:05:33;;;;;;;2.65;1.70;;;;;;;13.52;53.90;98641.97;15340882;19;20025;-78
2023/04/27 13:10:58;;;;;;;3.85;1.73;;;;;;;13.37;55.68;98636.38;15347683;19;20018;-76
2023/04/27 13:16:26;;;;;;;3.80;1.80;;;;;;;13.59;57.32;98629.41;15343117;19;20006;-78
2023/04/27 13:21:50;;;;;;;3.25;1.75;;;;;;;13.93;54.99;98624.69;15307699;19;20027;-79
2023/04/27 13:27:15;;;;;;;4.10;1.65;;;;;;;14.13;52.24;98625.03;15287103;19;21122;-78
2023/04/27 13:32:42;;;;;;;4.93;1.80;;;;;;;14.41;53.82;98616.38;15287448;19;20010;-78
2023/04/27 13:38:07;;;;;;;5.22;1.88;;;;;;;14.56;53.63;98624.56;15288766;19;20002;-77
2023/04/27 13:43:32;;;;;;;4.50;1.90;;;;;;;13.77;52.25;98612.03;15293756;19;20350;-79
2023/04/27 13:48:59;;;;;;;3.83;2.10;;;;;;;13.64;51.24;98607.22;15298996;19;20090;-77
2023/04/27 13:54:25;;;;;;;4.25;1.80;;;;;;;14.79;54.62;98611.84;15340175;19;20070;-78
2023/04/27 13:59:50;;;;;;;2.70;1.92;;;;;;;15.48;51.00;98601.78;15309975;19;20019;-79
2023/04/27 14:05:19;;;;;;;3.53;1.80;;;;;;;15.08;51.20;98606.66;15292425;19;20014;-78
2023/04/27 14:10:45;;;;;;;5.13;1.80;;;;;;;15.78;49.81;98590.03;15294768;19;20014;-78
2023/04/27 14:16:10;;;;;;;5.53;1.90;;;;;;;14.93;49.08;98593.06;15283709;19;20010;-78
2023/04/27 14:21:37;;;;;;;3.42;1.80;;;;;;;15.64;50.50;98597.19;15293127;19;20011;-79
2023/04/27 14:27:02;;;;;;;4.18;1.77;;;;;;;15.60;50.29;98599.44;15289632;19;20070;-81
2023/04/27 14:32:27;;;;;;;4.80;1.80;;;;;;;15.94;51.67;98599.88;15288929;19;20022;-81
2023/04/27 14:37:55;;;;;;;4.80;1.90;;;;;;;15.98;51.19;98598.47;15290655;19;20006;-78
2023/04/27 14:43:20;;;;;;;3.05;1.75;;;;;;;15.57;49.96;98599.81;15289958;19;20010;-80
2023/04/27 14:48:45;;;;;;;3.30;1.80;;;;;;;15.50;52.48;98604.31;15299889;19;20101;-81
2023/04/27 14:54:12;;;;;;;3.50;1.88;;;;;;;14.96;51.09;98609.00;15302514;19;20032;-80
2023/04/27 14:59:44;;;;;;;4.70;1.95;;;;;;;14.90;50.42;98604.28;15299720;19;20017;-81
2023/04/27 15:05:17;;;;;;;3.33;1.83;;;;;;;14.73;53.58;98611.75;15299356;19;20025;-80
2023/04/27 15:10:44;;;;;;;3.67;1.90;;;;;;;14.53;52.23;98595.09;15303463;19;20695;-80
2023/04/27 15:16:09;;;;;;;4.43;2.05;;;;;;;14.40;53.73;98588.47;15293465;19;20018;-79
2023/04/27 15:21:35;;;;;;;6.35;1.90;;;;;;;14.59;52.03;98586.25;15303015;19;20014;-81
2023/04/27 15:27:10;;;;;;;4.00;1.80;;;;;;;14.90;52.69;98588.00;15298939;19;20014;-79
2023/04/27 15:32:35;;;;;;;2.85;1.65;;;;;;;15.04;51.74;98591.78;15303975;19;20353;-79
2023/04/27 15:38:00;;;;;;;8.43;1.90;;;;;;;15.39;53.35;98587.47;15306726;19;20412;-79
2023/04/27 15:43:29;;;;;;;4.05;1.80;;;;;;;15.63;51.60;98577.31;15302842;19;20019;-79
2023/04/27 15:48:56;;;;;;;4.78;1.70;;;;;;;15.94;52.43;98568.09;15304912;19;20018;-78
2023/04/27 15:54:21;;;;;;;8.15;2.22;;;;;;;15.91;51.26;98563.06;15335731;19;20035;-78
2023/04/27 15:59:56;;;;;;;2.75;1.45;;;;;;;15.65;50.79;98558.97;15325895;19;20011;-77
2023/04/27 16:05:20;;;;;;;4.00;1.80;;;;;;;15.33;52.04;98566.53;15292397;19;20006;-78
2023/04/27 16:10:45;;;;;;;4.93;1.83;;;;;;;15.31;52.39;98555.00;15297127;19;20018;-77
2023/04/27 16:16:13;;;;;;;3.53;1.65;;;;;;;15.31;51.69;98552.28;15293507;19;20018;-79
2023/04/27 16:21:39;;;;;;;2.08;1.60;;;;;;;15.39;51.93;98551.34;15308147;19;20010;-78
2023/04/27 16:27:03;;;;;;;3.42;1.80;;;;;;;15.36;53.08;98541.69;15296267;19;20094;-79
2023/04/27 16:32:31;;;;;;;3.67;1.70;;;;;;;15.20;54.12;98550.88;15302479;19;20196;-79
2023/04/27 16:37:59;;;;;;;3.20;1.85;;;;;;;14.92;52.13;98534.41;15298102;19;20021;-79
2023/04/27 16:43:24;;;;;;;3.17;1.70;;;;;;;14.82;52.97;98542.00;15297807;19;20022;-78
2023/04/27 16:49:03;;;;;;;3.53;1.88;;;;;;;14.78;52.15;98541.53;15306350;19;20524;-80
2023/04/27 16:54:29;;;;;;;5.10;1.77;;;;;;;14.78;53.50;98546.97;15294407;19;20361;-79
2023/04/27 16:59:55;;;;;;;4.53;1.60;;;;;;;14.84;51.80;98550.78;15298545;19;20015;-79
2023/04/27 17:05:23;;;;;;;4.43;1.52;;;;;;;14.87;52.73;98548.53;15291465;19;20019;-79
2023/04/27 17:10:47;;;;;;;3.85;2.03;;;;;;;14.78;52.38;98553.22;15295325;19;20467;-80
2023/04/27 17:16:14;;;;;;;5.03;1.73;;;;;;;14.65;54.15;98547.53;15282104;19;20280;-80
2023/04/27 17:21:42;;;;;;;4.60;2.00;;;;;;;14.49;55.31;98557.53;15293596;19;20024;-80
2023/04/27 17:27:07;;;;;;;3.85;1.65;;;;;;;14.08;58.44;98552.44;15287703;19;20011;-77
2023/04/27 17:32:31;;;;;;;7.97;4.10;;;;;;;13.79;60.16;98559.41;15293011;19;20050;-78
2023/04/27 17:37:53;;;;;;;3.92;2.05;;;;;;;13.36;61.64;98561.63;15289239;19;20014;-78
2023/04/27 17:43:19;;;;;;;2.83;1.90;;;;;;;12.94;63.79;98550.09;15292452;19;20018;-78
2023/04/27 17:48:44;;;;;;;3.30;1.92;;;;;;;12.54;65.84;98547.31;15293974;19;20020;-78
2023/04/27 17:54:11;;;;;;;4.38;2.25;;;;;;;12.15;68.82;98551.56;15292646;19;20023;-78
2023/04/27 17:59:35;;;;;;;5.68;2.30;;;;;;;11.62;72.42;98550.94;15292850;19;20029;-76
2023/04/27 18:05:00;;;;;;;4.97;2.20;;;;;;;11.19;77.00;98564.44;15289922;19;20043;-78
2023/04/27 18:10:27;;;;;;;6.15;2.35;;;;;;;10.87;84.96;98563.28;15292699;19;20595;-76
2023/04/27 18:15:52;;;;;;;6.75;2.40;;;;;;;10.55;90.15;98564.78;15325243;19;20022;-78
2023/04/27 18:21:16;;;;;;;6.43;2.63;;;;;;;10.21;93.81;98564.63;15309761;19;20041;-77
2023/04/27 18:26:45;;;;;;;4.70;2.30;;;;;;;9.98;99.48;98576.75;15295601;19;20019;-77
2023/04/27 18:32:11;;;;;;;5.45;2.40;;;;;;;9.81;100.00;98578.44;15300372;19;20015;-77
2023/04/27 18:37:37;;;;;;;4.68;2.30;;;;;;;9.65;100.00;98579.06;15296369;19;20024;-77
2023/04/27 18:43:05;;;;;;;5.18;2.50;;;;;;;9.47;100.00;98578.22;15309686;19;20495;-76
2023/04/27 18:48:29;;;;;;;5.18;2.33;;;;;;;9.31;100.00;98576.19;15326036;19;20010;-76
2023/04/27 18:53:54;;;;;;;6.20;2.58;;;;;;;9.16;100.00;98567.78;15323595;19;20024;-78
2023/04/27 18:59:22;;;;;;;4.95;2.30;;;;;;;9.03;100.00;98565.41;15322748;19;20579;-79
2023/04/27 19:04:46;;;;;;;4.88;2.40;;;;;;;8.97;100.00;98572.22;15324570;19;20032;-80
2023/04/27 19:10:29;;;;;;;8.18;2.60;;;;;;;8.83;100.00;98578.06;15337531;19;20543;-78
2023/04/27 19:15:58;;;;;;;5.55;2.25;;;;;;;8.66;100.00;98574.28;15336943;19;20404;-80
2023/04/27 19:21:22;;;;;;;4.68;2.40;;;;;;;8.60;100.00;98581.09;15348574;19;20594;-79
2023/04/27 19:26:47;;;;;;;5.75;3.00;;;;;;;8.51;100.00;98580.13;15346240;19;20014;-78
2023/04/27 19:32:14;;;;;;;7.20;2.80;;;;;;;8.46;100.00;98577.00;15328312;19;20018;-77
2023/04/27 19:37:40;;;;;;;4.38;2.75;;;;;;;8.40;100.00;98583.78;15290106;19;20014;-76
2023/04/27 19:43:06;;;;;;;4.75;2.90;;;;;;;8.30;100.00;98577.59;15294077;19;20014;-76
2023/04/27 19:48:33;;;;;;;6.38;2.78;;;;;;;8.22;100.00;98586.34;15296495;19;20469;-76
2023/04/27 19:54:00;;;;;;;4.22;2.90;;;;;;;8.13;100.00;98576.47;15291813;19;20018;-77
2023/04/27 19:59:31;;;;;;;4.53;2.63;;;;;;;8.03;100.00;98576.47;15293001;19;20029;-77
2023/04/27 20:04:58;;;;;;;4.60;2.70;;;;;;;7.91;100.00;98575.75;15290128;19;20030;-77
2023/04/27 20:10:23;;;;;;;4.38;2.78;;;;;;;7.82;100.00;98571.25;15293301;19;20014;-76
2023/04/27 20:15:47;;;;;;;2.97;2.60;;;;;;;7.69;100.00;98575.03;15288582;19;20070;-77
2023/04/27 20:21:15;;;;;;;4.93;2.78;;;;;;;7.61;100.00;98574.03;15289641;19;20016;-76
2023/04/27 20:26:39;;;;;;;4.40;2.55;;;;;;;7.51;100.00;98571.31;15280169;19;20010;-79
2023/04/27 20:32:04;;;;;;;4.55;2.92;;;;;;;7.44;100.00;98565.66;15288712;19;20010;-77
2023/04/27 20:37:35;;;;;;;5.10;2.80;;;;;;;7.34;100.00;98564.81;15284623;19;20020;-77
2023/04/27 20:43:00;;;;;;;5.35;2.90;;;;;;;7.28;100.00;98555.47;15284978;19;20014;-77
2023/04/27 20:48:27;;;;;;;6.75;2.90;;;;;;;7.23;100.00;98555.88;15288354;19;20010;-77
2023/04/27 20:53:54;;;;;;;6.82;2.85;;;;;;;7.18;100.00;98552.75;15286543;19;20422;-76
2023/04/27 20:59:20;;;;;;;5.05;3.00;;;;;;;7.14;100.00;98555.84;15279241;19;20025;-76
2023/04/27 21:04:44;;;;;;;5.80;2.90;;;;;;;7.06;100.00;98557.38;15281794;19;20699;-75
2023/04/27 21:10:12;;;;;;;9.52;3.22;;;;;;;7.02;100.00;98550.59;15288194;19;20006;-76
2023/04/27 21:15:37;;;;;;;5.20;2.80;;;;;;;6.95;100.00;98544.09;15279371;19;20014;-75
2023/04/27 21:21:01;;;;;;;4.47;3.28;;;;;;;6.89;100.00;98549.97;15283879;19;20716;-77
2023/04/27 21:26:29;;;;;;;5.70;3.10;;;;;;;6.86;100.00;98560.97;15277456;19;20355;-77
2023/04/27 21:31:54;;;;;;;5.00;3.33;;;;;;;6.78;100.00;98559.81;15277438;19;20015;-77
2023/04/27 21:37:19;;;;;;;4.50;3.03;;;;;;;6.74;100.00;98561.06;15280528;19;20011;-76
2023/04/27 21:42:46;;;;;;;6.20;2.90;;;;;;;6.67;100.00;98559.88;15281825;19;20086;-76
2023/04/27 21:48:12;;;;;;;6.13;3.13;;;;;;;6.60;100.00;98556.06;15280589;19;20041;-77
2023/04/27 21:53:37;;;;;;;4.63;3.33;;;;;;;6.54;100.00;98549.41;15281689;19;20032;-76
2023/04/27 21:59:04;;;;;;;6.35;3.22;;;;;;;6.49;100.00;98543.59;15279946;19;20018;-77
2023/04/27 22:04:29;;;;;;;6.85;3.42;;;;;;;6.48;100.00;98537.41;15274187;19;20014;-78
2023/04/27 22:09:55;;;;;;;3.97;3.17;;;;;;;6.45;100.00;98543.00;15281395;19;20074;-76
2023/04/27 22:15:22;;;;;;;7.78;3.55;;;;;;;6.41;100.00;98535.38;15277267;19;20014;-76
2023/04/27 22:20:48;;;;;;;4.32;3.17;;;;;;;6.38;100.00;98525.78;15283178;19;20078;-75
2023/04/27 22:26:12;;;;;;;6.85;3.60;;;;;;;6.38;100.00;98519.56;15282395;19;20283;-76
2023/04/27 22:31:40;;;;;;;5.43;3.33;;;;;;;6.38;100.00;98520.44;15289961;19;20074;-76
2023/04/27 22:37:06;;;;;;;5.28;3.47;;;;;;;6.35;100.00;98510.00;15302417;19;20036;-75
2023/04/27 22:42:31;;;;;;;4.85;3.35;;;;;;;6.37;100.00;98501.81;15331093;19;20568;-76
2023/04/27 22:47:59;;;;;;;4.85;3.42;;;;;;;6.36;100.00;98503.66;15316915;19;20014;-76
2023/04/27 22:53:24;;;;;;;5.50;3.40;;;;;;;6.36;100.00;98497.44;14792928;19;10000748;-77
2023/04/27 22:58:49;;;;;;;4.85;3.40;;;;;;;6.37;100.00;98500.00;15274876;19;20017;-77
2023/04/27 23:04:16;;;;;;;6.95;3.55;;;;;;;6.37;100.00;98494.66;15275620;19;20014;-76
2023/04/27 23:09:41;;;;;;;4.93;3.50;;;;;;;6.36;100.00;98490.28;15290166;19;20508;-76
2023/04/27 23:15:07;;;;;;;4.53;3.60;;;;;;;6.32;100.00;98488.84;15289573;19;20006;-76
2023/04/27 23:20:35;;;;;;;5.57;3.55;;;;;;;6.32;100.00;98483.50;15295822;19;20041;-77
2023/04/27 23:26:00;;;;;;;4.95;3.40;;;;;;;6.27;100.00;98475.03;15288721;19;20377;-77
2023/04/27 23:31:26;;;;;;;4.50;3.80;;;;;;;6.26;100.00;98462.63;15292278;19;20909;-76
2023/04/27 23:36:54;;;;;;;5.93;3.78;;;;;;;6.23;100.00;98468.25;15286733;19;20016;-76
2023/04/27 23:42:20;;;;;;;5.63;3.55;;;;;;;6.25;100.00;98451.06;15287790;19;20042;-77
2023/04/27 23:47:44;;;;;;;5.45;4.10;;;;;;;6.28;100.00;98444.63;15287122;19;20003;-76
2023/04/27 23:53:12;;;;;;;5.57;3.90;;;;;;;6.31;100.00;98449.69;15294101;19;20034;-77
2023/04/27 23:58:44;;;;;;;4.88;3.33;;;;;;;6.37;100.00;98446.50;15293794;19;20018;-76
